Historyczne dane pomiarowe

Dodano dane terminowe – wersja testowa.

Dane z okresu 1951-2019

Wersja bazy: 1.34 [2019-03-16, lista zmian], aktualizacja planowana na 2019-04-15

Dane meteo z obszaru Polski uzyskane na podstawie danych udostępnionych przez Instytut Meteorologii i Gospodarki Wodnej – Państwowy Instytut Badawczy.

 

Wybierz Datę:    

       

TemperaturaWilgotnośćWiatrCiśnienieOpadyŚniegCzas trwania zjawisk
 Stacja t tx tn tng RH VA  wxwx mslp ppp RRR   cm mm wxwxwxwxwxwxwx
1994-08-14 14.2 17.7 11.6 11.2 75.8- 6.7 8.3---- 0.0------------
1994-08-13 16.2 23.3 13.8 11.5 95.8- 7.7 1.7---- 10.2------------
1994-08-12 18.4 24.8 10.5 6.7 68.8- 5.3 2.0---- 0.0------------
1994-08-11 17.2 25.1 10.4 7.5 62.8- 3.7 2.7---- 0.0------------
1994-08-10 19.8 25.9 14.0 9.7 71.5- 2.3 2.3---- 0.0------------
1994-08-09 18.1 23.1 13.3 12.5 85.3- 7.0 2.3---- 4.3------------
1994-08-08 19.1 23.9 15.2 12.5 81.3- 6.0 1.0---- 0.3------------
1994-08-07 23.0 28.6 17.4 17.7 69.3- 3.7 3.3---- 0.0------------
1994-08-06 26.1 33.5 17.0 13.9 54.8- 2.0 2.0---- 1.3------------
1994-08-05 25.0 32.0 16.5 13.8 68.3- 2.0 1.3---- 0.0------------
1994-08-04 23.6 30.5 16.9 15.5 75.3- 3.0 3.3---- 5.0------------
1994-08-03 22.3 28.9 17.8 16.7 79.3- 6.3 3.0---- 2.8------------
1994-08-02 26.6 33.4 18.3 15.0 60.0- 1.7 0.7---- 0.8------------
1994-08-01 26.5 34.8 19.6 19.6 60.3- 5.0 2.3---- 4.1------------
1994-07-31 27.4 36.0 17.8 13.0 56.5- 2.0 0.3---- 0.0------------
1994-07-30 26.5 34.8 17.6 12.0 56.3- 1.3 1.0---- 0.0------------
1994-07-29 26.6 34.2 17.7 11.0 51.0- 0.0 1.0---- 0.0------------
1994-07-28 25.5 33.2 16.6 10.0 52.8- 0.0 2.0---- 0.0------------
1994-07-27 25.5 32.5 16.3 12.0 56.0- 1.0 1.0---- 0.0------------
1994-07-26 24.7 31.5 17.0 14.0 54.5- 1.7 3.3---- 0.0------------
1994-07-25 23.6 31.0 14.8 10.5 61.0- 2.7 1.7---- 0.0------------
1994-07-24 23.1 29.5 11.3 11.3 62.0- 1.7 1.7---- 0.0------------
1994-07-23 21.4 28.3 11.3 6.9 67.8- 2.7 1.7---- 0.0------------
1994-07-22 19.2 26.2 10.9 6.6 72.5- 1.3 2.7---- 0.0------------
1994-07-21 18.8 28.5 8.4 4.8 66.3- 1.3 3.0---- 0.0------------
1994-07-20 16.9 23.6 8.5 8.7 70.8- 1.3 2.7---- 0.0------------
1994-07-19 17.1 21.4 9.8 9.0 69.8- 2.7 3.7---- 0.0------------
1994-07-18 18.5 24.4 14.3 10.3 72.8- 4.3 3.0---- 0.0------------
1994-07-17 21.4 26.4 16.3 12.8 76.3- 4.3 3.0---- 0.0------------
1994-07-16 24.2 31.7 14.0 11.3 70.5- 3.7 2.0---- 0.0------------
1994-07-15 23.8 30.0 14.8 10.0 68.5- 1.0 2.0---- 0.0------------
1994-07-14 24.6 30.3 17.8 13.8 71.0- 2.0 1.7---- 0.0------------
1994-07-13 24.2 29.9 16.8 13.7 69.0- 3.7 1.3---- 0.0------------
1994-07-12 22.7 29.6 12.9 9.7 69.8- 2.3 1.7---- 0.0------------
1994-07-11 21.3 27.7 12.8 9.0 67.5- 3.0 2.7---- 0.0------------
1994-07-10 19.6 25.7 12.8 11.0 72.5- 4.0 3.7---- 0.0------------
1994-07-09 14.3 19.2 10.6 10.4 90.8- 6.7 3.7---- 2.5------------
1994-07-08 15.4 22.5 12.6 9.2 85.8- 5.7 2.0---- 5.1------------
1994-07-07 18.5 24.2 10.0 7.6 65.5- 2.0 3.3---- 0.0------------
1994-07-06 17.7 23.7 8.5 4.9 71.8- 3.7 1.0---- 0.0------------
1994-07-05 17.3 23.3 8.8 5.3 66.3- 1.7 3.7---- 0.0------------
1994-07-04 18.3 24.4 9.5 4.9 72.0- 2.3 2.7---- 0.0------------
1994-07-03 16.2 22.4 7.0 4.7 71.0- 1.7 2.0---- 0.0------------
1994-07-02 15.9 21.2 8.3 3.7 68.0- 0.3 4.7---- 0.0------------
1994-07-01 16.0 21.9 8.8 4.1 75.0- 3.0 5.3---- 0.0------------
1994-06-30 19.4 24.4 16.2 12.2 73.3- 5.7 4.7---- 6.4------------
1994-06-29 21.5 28.4 12.8 7.9 67.3- 0.0 2.0---- 0.0------------
1994-06-28 19.6 26.3 11.5 9.3 70.0- 2.0 3.7---- 0.0------------
1994-06-27 21.9 27.1 14.3 11.5 68.0- 3.3 4.0---- 0.0------------
1994-06-26 21.1 28.5 12.5 6.9 59.5- 0.3 2.7---- 0.0------------
1994-06-25 15.1 21.9 6.3 4.3 71.0- 0.3 2.3---- 0.0------------
1994-06-24 12.1 16.7 7.8 4.9 66.5- 5.0 7.3---- 0.0------------
1994-06-23 13.8 17.4 11.1 7.4 71.8- 5.0 11.3---- 0.6------------
1994-06-22 16.9 23.2 11.7 5.0 78.3- 5.3 5.3---- 4.9------------
1994-06-21 14.6 21.2 6.5 1.1 74.0- 2.3 1.7---- 0.0------------
1994-06-20 14.4 16.1 11.1 8.5 70.0- 3.3 8.0---- 0.0------------
1994-06-19 12.9 14.7 11.0 10.0 97.3- 7.7 4.3---- 4.2------------
1994-06-18 11.6 17.6 3.1 0.7 66.5- 4.3 3.0---- 1.3------------
1994-06-17 9.0 13.9 4.9 0.4 83.5- 4.7 7.3---- 0.3------------
1994-06-16 11.1 16.4 8.3 2.7 79.3- 5.7 5.0---- 1.2------------
275.8 ms

 

Źródłem pochodzenia danych jest Instytut Meteorologii i Gospodarki Wodnej – Państwowy Instytut Badawczy. Dane Instytutu Meteorologii i Gospodarki Wodnej – Państwowego Instytutu Badawczego zostały przetworzone.

Dane źródłowe można odnaleźć na stronie https://dane.imgw.pl